evenbalance.com alexa rank chart, evenbalance.com alexa rank daily changes

evenbalance.com alexa rank chart, evenbalance.com alexa rank daily changes

evenbalance.com
Actual rank:
173 297

RANK HISTORY

Date Rank Diff
2017/04/21 173 297 +3 127
2017/04/20 170 170 +5 806
2017/04/19 164 364 +811
2017/04/18 163 553 -5 109
2017/04/17 168 662 -5 285
2017/04/16 173 947 -2 384
2017/04/15 176 331 +2 081
2017/04/14 174 250 +3 888
2017/04/13 170 362 +7 125
2017/04/12 163 237 +2 197
2017/04/11 161 040 -6 452
2017/04/10 167 492 -646
2017/04/09 168 138 -2 470
2017/04/08 170 608 -579
2017/04/07 171 187 -1 332
2017/04/06 172 519 -747
2017/04/05 173 266 -5 488
2017/04/04 178 754 +2 249
2017/04/03 176 505 -3 783
2017/04/02 180 288 -6 630
2017/04/01 186 918 +1 321
2017/03/31 185 597 +762
2017/03/30 184 835 -562
2017/03/29 185 397 +3 096
2017/03/28 182 301 +7 921
2017/03/27 174 380 +847
2017/03/26 173 533 -1 768
2017/03/25 175 301 +6 281
2017/03/24 169 020 +6 348
2017/03/23 162 672 -246
2017/03/22 162 918 -10
2017/03/21 162 928 +955
2017/03/20 161 973 -4 732
2017/03/19 166 705 -1 681
2017/03/18 168 386 +1 661
2017/03/17 166 725 +4 513
2017/03/16 162 212 +457
2017/03/15 161 755 -586
2017/03/14 162 341 +581
2017/03/13 161 760 -3 556
2017/03/12 165 316 -148
2017/03/11 165 464 -27
2017/03/10 165 491 +2 696
2017/03/09 162 795 -465
2017/03/08 163 260 +11 216
2017/03/07 152 044 -3 130
2017/03/06 155 174 +3 148
2017/03/01 152 026 -2 574
2017/02/28 154 600 -4 213
2017/02/27 158 813 -6 367
2017/02/26 165 180 +1 752
2017/02/25 163 428 -5 247
2017/02/24 168 675 -611
2017/02/23 169 286 +4 097
2017/02/22 165 189 +1 996
2017/02/21 163 193 -1 897
2017/02/20 165 090

WIDGET FOR YOUR SITE

DOMAINS WITH THE NEAREST RANK

Domain Rank
kino99.com 173 292
briggs-riley.com 173 293
x771221.net 173 294
satoshiro.space 173 295
nacional.hr 173 296
evenbalance.com 173 297
shuud.mn 173 298
zanimljivovirals.com 173 299
thesurvivalpodcast.com 173 300
sketchite.com 173 301
bigbehoof.com 173 302

DOMAINS WITH THE NEAREST RANK BY TLD .com

Domain Rank
baklol.com 173 283
hongren.com 173 285
message-business.com 173 290
kino99.com 173 292
briggs-riley.com 173 293
evenbalance.com 173 297
zanimljivovirals.com 173 299
thesurvivalpodcast.com 173 300
sketchite.com 173 301
bigbehoof.com 173 302
sixteenventures.com 173 304